sensor_id;sensor_type;location;lat;lon;timestamp;P1;durP1;ratioP1;P2;durP2;ratioP2
48554;SDS011;34336;48.270;16.716;2023-09-12T00:00:50;12.00;;;10.27;;
48554;SDS011;34336;48.270;16.716;2023-09-12T00:03:20;13.77;;;12.40;;
48554;SDS011;34336;48.270;16.716;2023-09-12T00:05:52;15.88;;;12.35;;
48554;SDS011;34336;48.270;16.716;2023-09-12T00:08:20;15.47;;;11.43;;
48554;SDS011;34336;48.270;16.716;2023-09-12T00:10:47;12.85;;;10.98;;
48554;SDS011;34336;48.270;16.716;2023-09-12T00:13:24;12.38;;;10.85;;
48554;SDS011;34336;48.270;16.716;2023-09-12T00:15:51;14.77;;;12.95;;
48554;SDS011;34336;48.270;16.716;2023-09-12T00:18:18;13.95;;;12.40;;
48554;SDS011;34336;48.270;16.716;2023-09-12T00:20:45;12.95;;;11.63;;
48554;SDS011;34336;48.270;16.716;2023-09-12T00:23:12;12.98;;;11.48;;
48554;SDS011;34336;48.270;16.716;2023-09-12T00:25:39;14.07;;;12.60;;
48554;SDS011;34336;48.270;16.716;2023-09-12T00:28:06;14.10;;;12.60;;
48554;SDS011;34336;48.270;16.716;2023-09-12T00:30:33;14.05;;;12.40;;
48554;SDS011;34336;48.270;16.716;2023-09-12T00:33:01;17.60;;;12.48;;
48554;SDS011;34336;48.270;16.716;2023-09-12T00:35:29;17.05;;;13.05;;
48554;SDS011;34336;48.270;16.716;2023-09-12T00:37:56;15.43;;;13.48;;
48554;SDS011;34336;48.270;16.716;2023-09-12T00:40:23;16.52;;;12.70;;
48554;SDS011;34336;48.270;16.716;2023-09-12T00:42:50;18.55;;;13.50;;
48554;SDS011;34336;48.270;16.716;2023-09-12T00:45:17;15.32;;;13.38;;
48554;SDS011;34336;48.270;16.716;2023-09-12T00:47:45;14.98;;;13.40;;
48554;SDS011;34336;48.270;16.716;2023-09-12T00:50:12;16.00;;;13.70;;
48554;SDS011;34336;48.270;16.716;2023-09-12T00:52:41;17.48;;;13.60;;
48554;SDS011;34336;48.270;16.716;2023-09-12T00:55:09;17.13;;;14.43;;
48554;SDS011;34336;48.270;16.716;2023-09-12T00:57:37;16.48;;;13.98;;
48554;SDS011;34336;48.270;16.716;2023-09-12T01:00:04;14.48;;;12.63;;
48554;SDS011;34336;48.270;16.716;2023-09-12T01:02:39;16.48;;;12.80;;
48554;SDS011;34336;48.270;16.716;2023-09-12T01:05:08;13.40;;;11.88;;
48554;SDS011;34336;48.270;16.716;2023-09-12T01:07:37;14.80;;;13.30;;
48554;SDS011;34336;48.270;16.716;2023-09-12T01:10:05;14.07;;;12.57;;
48554;SDS011;34336;48.270;16.716;2023-09-12T01:12:33;14.50;;;12.93;;
48554;SDS011;34336;48.270;16.716;2023-09-12T01:15:00;16.60;;;13.15;;
48554;SDS011;34336;48.270;16.716;2023-09-12T01:17:27;15.35;;;12.65;;
48554;SDS011;34336;48.270;16.716;2023-09-12T01:19:54;14.05;;;12.65;;
48554;SDS011;34336;48.270;16.716;2023-09-12T01:28:04;15.98;;;13.38;;
48554;SDS011;34336;48.270;16.716;2023-09-12T01:30:34;14.88;;;13.02;;
48554;SDS011;34336;48.270;16.716;2023-09-12T01:33:05;14.38;;;12.60;;
48554;SDS011;34336;48.270;16.716;2023-09-12T01:35:33;13.93;;;12.48;;
48554;SDS011;34336;48.270;16.716;2023-09-12T01:38:00;13.95;;;12.45;;
48554;SDS011;34336;48.270;16.716;2023-09-12T01:40:47;14.05;;;12.65;;
48554;SDS011;34336;48.270;16.716;2023-09-12T01:43:18;14.20;;;12.70;;
48554;SDS011;34336;48.270;16.716;2023-09-12T01:45:48;14.38;;;12.55;;
48554;SDS011;34336;48.270;16.716;2023-09-12T01:48:20;14.70;;;13.07;;
48554;SDS011;34336;48.270;16.716;2023-09-12T01:50:50;14.73;;;12.63;;
48554;SDS011;34336;48.270;16.716;2023-09-12T01:53:18;13.73;;;12.13;;
48554;SDS011;34336;48.270;16.716;2023-09-12T01:55:45;17.60;;;12.98;;
48554;SDS011;34336;48.270;16.716;2023-09-12T01:58:14;14.68;;;13.13;;
48554;SDS011;34336;48.270;16.716;2023-09-12T02:00:41;15.77;;;12.95;;
48554;SDS011;34336;48.270;16.716;2023-09-12T02:03:08;16.13;;;12.95;;
48554;SDS011;34336;48.270;16.716;2023-09-12T02:05:36;15.00;;;13.50;;
48554;SDS011;34336;48.270;16.716;2023-09-12T02:08:04;16.77;;;14.98;;
48554;SDS011;34336;48.270;16.716;2023-09-12T02:10:32;17.25;;;14.20;;
48554;SDS011;34336;48.270;16.716;2023-09-12T02:12:59;16.05;;;13.45;;
48554;SDS011;34336;48.270;16.716;2023-09-12T02:15:27;14.80;;;13.20;;
48554;SDS011;34336;48.270;16.716;2023-09-12T02:17:54;18.73;;;14.55;;
48554;SDS011;34336;48.270;16.716;2023-09-12T02:20:21;15.13;;;13.00;;
48554;SDS011;34336;48.270;16.716;2023-09-12T02:22:48;17.55;;;15.18;;
48554;SDS011;34336;48.270;16.716;2023-09-12T02:25:16;16.45;;;14.75;;
48554;SDS011;34336;48.270;16.716;2023-09-12T02:27:46;16.38;;;14.30;;
48554;SDS011;34336;48.270;16.716;2023-09-12T02:30:13;15.80;;;14.32;;
48554;SDS011;34336;48.270;16.716;2023-09-12T02:32:43;15.52;;;13.90;;
48554;SDS011;34336;48.270;16.716;2023-09-12T02:35:11;15.52;;;13.95;;
48554;SDS011;34336;48.270;16.716;2023-09-12T02:37:38;15.07;;;13.38;;
48554;SDS011;34336;48.270;16.716;2023-09-12T02:40:05;15.38;;;13.27;;
48554;SDS011;34336;48.270;16.716;2023-09-12T02:42:33;14.80;;;13.30;;
48554;SDS011;34336;48.270;16.716;2023-09-12T02:45:01;17.75;;;14.00;;
48554;SDS011;34336;48.270;16.716;2023-09-12T02:47:29;15.75;;;14.25;;
48554;SDS011;34336;48.270;16.716;2023-09-12T02:49:56;15.68;;;13.90;;
48554;SDS011;34336;48.270;16.716;2023-09-12T02:52:23;17.13;;;15.02;;
48554;SDS011;34336;48.270;16.716;2023-09-12T02:54:50;16.77;;;14.73;;
48554;SDS011;34336;48.270;16.716;2023-09-12T02:57:17;17.05;;;14.35;;
48554;SDS011;34336;48.270;16.716;2023-09-12T02:59:44;16.35;;;14.25;;
48554;SDS011;34336;48.270;16.716;2023-09-12T03:02:11;19.80;;;14.45;;
48554;SDS011;34336;48.270;16.716;2023-09-12T03:04:38;15.63;;;14.00;;
48554;SDS011;34336;48.270;16.716;2023-09-12T03:07:05;16.77;;;14.50;;
48554;SDS011;34336;48.270;16.716;2023-09-12T03:09:33;17.33;;;15.40;;
48554;SDS011;34336;48.270;16.716;2023-09-12T03:12:04;16.30;;;14.30;;
48554;SDS011;34336;48.270;16.716;2023-09-12T03:14:31;20.58;;;15.63;;
48554;SDS011;34336;48.270;16.716;2023-09-12T03:16:59;16.65;;;14.60;;
48554;SDS011;34336;48.270;16.716;2023-09-12T03:19:26;15.98;;;14.18;;
48554;SDS011;34336;48.270;16.716;2023-09-12T03:21:53;16.83;;;14.82;;
48554;SDS011;34336;48.270;16.716;2023-09-12T03:24:20;19.00;;;15.20;;
48554;SDS011;34336;48.270;16.716;2023-09-12T03:26:50;17.08;;;14.75;;
48554;SDS011;34336;48.270;16.716;2023-09-12T03:29:18;17.83;;;15.90;;
48554;SDS011;34336;48.270;16.716;2023-09-12T03:31:45;16.30;;;14.52;;
48554;SDS011;34336;48.270;16.716;2023-09-12T03:34:12;18.58;;;15.50;;
48554;SDS011;34336;48.270;16.716;2023-09-12T03:36:39;15.55;;;14.02;;
48554;SDS011;34336;48.270;16.716;2023-09-12T03:39:07;16.20;;;14.60;;
48554;SDS011;34336;48.270;16.716;2023-09-12T03:41:35;16.60;;;14.77;;
48554;SDS011;34336;48.270;16.716;2023-09-12T03:44:03;16.65;;;14.90;;
48554;SDS011;34336;48.270;16.716;2023-09-12T03:46:30;16.30;;;13.65;;
48554;SDS011;34336;48.270;16.716;2023-09-12T03:48:58;17.45;;;14.32;;
48554;SDS011;34336;48.270;16.716;2023-09-12T03:51:25;17.65;;;14.85;;
48554;SDS011;34336;48.270;16.716;2023-09-12T03:53:52;15.63;;;13.90;;
48554;SDS011;34336;48.270;16.716;2023-09-12T03:56:19;17.08;;;14.10;;
48554;SDS011;34336;48.270;16.716;2023-09-12T03:58:46;18.33;;;13.93;;
48554;SDS011;34336;48.270;16.716;2023-09-12T04:01:14;21.25;;;15.35;;
48554;SDS011;34336;48.270;16.716;2023-09-12T04:03:42;16.80;;;15.30;;
48554;SDS011;34336;48.270;16.716;2023-09-12T04:06:11;21.30;;;16.75;;
48554;SDS011;34336;48.270;16.716;2023-09-12T04:08:38;17.30;;;15.45;;
48554;SDS011;34336;48.270;16.716;2023-09-12T04:11:07;16.85;;;14.38;;
48554;SDS011;34336;48.270;16.716;2023-09-12T04:13:34;17.30;;;15.52;;
48554;SDS011;34336;48.270;16.716;2023-09-12T04:16:01;18.00;;;14.93;;
48554;SDS011;34336;48.270;16.716;2023-09-12T04:18:28;20.83;;;15.55;;
48554;SDS011;34336;48.270;16.716;2023-09-12T04:20:55;19.75;;;15.63;;
48554;SDS011;34336;48.270;16.716;2023-09-12T04:23:26;18.92;;;14.23;;
48554;SDS011;34336;48.270;16.716;2023-09-12T04:25:53;21.67;;;14.40;;
48554;SDS011;34336;48.270;16.716;2023-09-12T04:28:20;17.63;;;15.15;;
48554;SDS011;34336;48.270;16.716;2023-09-12T04:30:47;17.77;;;15.02;;
48554;SDS011;34336;48.270;16.716;2023-09-12T04:33:14;18.90;;;15.80;;
48554;SDS011;34336;48.270;16.716;2023-09-12T04:35:41;19.88;;;15.32;;
48554;SDS011;34336;48.270;16.716;2023-09-12T04:38:09;22.48;;;16.52;;
48554;SDS011;34336;48.270;16.716;2023-09-12T04:40:36;24.15;;;16.05;;
48554;SDS011;34336;48.270;16.716;2023-09-12T04:43:03;26.30;;;16.60;;
48554;SDS011;34336;48.270;16.716;2023-09-12T04:45:32;20.85;;;15.52;;
48554;SDS011;34336;48.270;16.716;2023-09-12T04:48:00;22.33;;;16.83;;
48554;SDS011;34336;48.270;16.716;2023-09-12T04:50:27;17.90;;;15.23;;
48554;SDS011;34336;48.270;16.716;2023-09-12T04:52:54;19.45;;;14.32;;
48554;SDS011;34336;48.270;16.716;2023-09-12T04:55:21;16.75;;;14.48;;
48554;SDS011;34336;48.270;16.716;2023-09-12T04:57:48;19.92;;;13.10;;
48554;SDS011;34336;48.270;16.716;2023-09-12T05:00:15;18.30;;;14.07;;
48554;SDS011;34336;48.270;16.716;2023-09-12T05:02:42;16.92;;;12.32;;
48554;SDS011;34336;48.270;16.716;2023-09-12T05:05:09;13.70;;;11.70;;
48554;SDS011;34336;48.270;16.716;2023-09-12T05:07:36;14.73;;;12.00;;
48554;SDS011;34336;48.270;16.716;2023-09-12T05:10:03;14.25;;;11.65;;
48554;SDS011;34336;48.270;16.716;2023-09-12T05:12:31;15.38;;;10.63;;
48554;SDS011;34336;48.270;16.716;2023-09-12T05:14:58;14.30;;;10.05;;
48554;SDS011;34336;48.270;16.716;2023-09-12T05:17:25;14.30;;;11.13;;
48554;SDS011;34336;48.270;16.716;2023-09-12T05:19:52;15.10;;;10.93;;
48554;SDS011;34336;48.270;16.716;2023-09-12T05:22:19;11.65;;;9.70;;
48554;SDS011;34336;48.270;16.716;2023-09-12T05:24:46;11.70;;;10.50;;
48554;SDS011;34336;48.270;16.716;2023-09-12T05:27:14;11.85;;;10.65;;
48554;SDS011;34336;48.270;16.716;2023-09-12T05:29:41;13.30;;;10.95;;
48554;SDS011;34336;48.270;16.716;2023-09-12T05:32:08;12.43;;;11.13;;
48554;SDS011;34336;48.270;16.716;2023-09-12T05:34:36;12.20;;;10.60;;
48554;SDS011;34336;48.270;16.716;2023-09-12T05:37:03;11.70;;;10.55;;
48554;SDS011;34336;48.270;16.716;2023-09-12T05:39:30;16.13;;;11.70;;
48554;SDS011;34336;48.270;16.716;2023-09-12T05:41:57;17.77;;;12.52;;
48554;SDS011;34336;48.270;16.716;2023-09-12T05:44:24;15.15;;;11.85;;
48554;SDS011;34336;48.270;16.716;2023-09-12T05:46:51;13.85;;;11.30;;
48554;SDS011;34336;48.270;16.716;2023-09-12T05:49:18;12.75;;;11.30;;
48554;SDS011;34336;48.270;16.716;2023-09-12T05:51:45;13.05;;;11.70;;
48554;SDS011;34336;48.270;16.716;2023-09-12T05:54:12;13.55;;;11.02;;
48554;SDS011;34336;48.270;16.716;2023-09-12T05:56:41;14.77;;;11.70;;
48554;SDS011;34336;48.270;16.716;2023-09-12T05:59:08;13.40;;;11.95;;
48554;SDS011;34336;48.270;16.716;2023-09-12T06:01:35;12.68;;;11.35;;
48554;SDS011;34336;48.270;16.716;2023-09-12T06:04:02;12.50;;;11.05;;
48554;SDS011;34336;48.270;16.716;2023-09-12T06:06:29;16.35;;;12.00;;
48554;SDS011;34336;48.270;16.716;2023-09-12T06:08:56;14.02;;;11.25;;
48554;SDS011;34336;48.270;16.716;2023-09-12T06:11:24;13.18;;;11.75;;
48554;SDS011;34336;48.270;16.716;2023-09-12T06:13:52;15.13;;;11.80;;
48554;SDS011;34336;48.270;16.716;2023-09-12T06:16:19;15.27;;;11.27;;
48554;SDS011;34336;48.270;16.716;2023-09-12T06:18:45;13.75;;;12.00;;
48554;SDS011;34336;48.270;16.716;2023-09-12T06:21:15;15.43;;;12.45;;
48554;SDS011;34336;48.270;16.716;2023-09-12T06:23:42;14.98;;;12.30;;
48554;SDS011;34336;48.270;16.716;2023-09-12T06:26:09;13.27;;;10.90;;
48554;SDS011;34336;48.270;16.716;2023-09-12T06:28:36;14.25;;;11.40;;
48554;SDS011;34336;48.270;16.716;2023-09-12T06:31:03;14.02;;;12.00;;
48554;SDS011;34336;48.270;16.716;2023-09-12T06:33:30;13.88;;;12.18;;
48554;SDS011;34336;48.270;16.716;2023-09-12T06:35:58;15.25;;;13.15;;
48554;SDS011;34336;48.270;16.716;2023-09-12T06:38:25;13.85;;;12.07;;
48554;SDS011;34336;48.270;16.716;2023-09-12T06:40:51;13.57;;;12.18;;
48554;SDS011;34336;48.270;16.716;2023-09-12T06:43:19;16.23;;;12.23;;
48554;SDS011;34336;48.270;16.716;2023-09-12T06:45:46;14.50;;;12.25;;
48554;SDS011;34336;48.270;16.716;2023-09-12T06:48:13;13.60;;;12.18;;
48554;SDS011;34336;48.270;16.716;2023-09-12T06:50:41;14.05;;;11.82;;
48554;SDS011;34336;48.270;16.716;2023-09-12T06:53:11;13.93;;;12.20;;
48554;SDS011;34336;48.270;16.716;2023-09-12T06:55:38;15.35;;;13.05;;
48554;SDS011;34336;48.270;16.716;2023-09-12T06:58:06;13.70;;;12.02;;
48554;SDS011;34336;48.270;16.716;2023-09-12T07:00:37;13.77;;;11.70;;
48554;SDS011;34336;48.270;16.716;2023-09-12T07:03:04;13.55;;;12.15;;
48554;SDS011;34336;48.270;16.716;2023-09-12T07:05:31;15.48;;;11.75;;
48554;SDS011;34336;48.270;16.716;2023-09-12T07:07:58;13.98;;;11.70;;
48554;SDS011;34336;48.270;16.716;2023-09-12T07:10:25;17.10;;;12.02;;
48554;SDS011;34336;48.270;16.716;2023-09-12T07:12:52;16.98;;;12.38;;
48554;SDS011;34336;48.270;16.716;2023-09-12T07:15:20;15.43;;;12.55;;
48554;SDS011;34336;48.270;16.716;2023-09-12T07:17:47;16.48;;;12.30;;
48554;SDS011;34336;48.270;16.716;2023-09-12T07:20:14;16.77;;;12.77;;
48554;SDS011;34336;48.270;16.716;2023-09-12T07:22:42;20.20;;;13.45;;
48554;SDS011;34336;48.270;16.716;2023-09-12T07:25:09;15.98;;;13.18;;
48554;SDS011;34336;48.270;16.716;2023-09-12T07:27:38;17.60;;;13.13;;
48554;SDS011;34336;48.270;16.716;2023-09-12T07:30:06;22.52;;;14.52;;
48554;SDS011;34336;48.270;16.716;2023-09-12T07:32:33;15.10;;;13.32;;
48554;SDS011;34336;48.270;16.716;2023-09-12T07:35:01;18.85;;;13.45;;
48554;SDS011;34336;48.270;16.716;2023-09-12T07:37:28;16.88;;;13.68;;
48554;SDS011;34336;48.270;16.716;2023-09-12T07:39:55;17.50;;;12.40;;
48554;SDS011;34336;48.270;16.716;2023-09-12T07:42:23;16.02;;;12.35;;
48554;SDS011;34336;48.270;16.716;2023-09-12T07:44:50;18.95;;;12.73;;
48554;SDS011;34336;48.270;16.716;2023-09-12T07:47:17;20.20;;;12.90;;
48554;SDS011;34336;48.270;16.716;2023-09-12T07:49:45;15.70;;;13.40;;
48554;SDS011;34336;48.270;16.716;2023-09-12T07:52:12;21.80;;;13.13;;
48554;SDS011;34336;48.270;16.716;2023-09-12T07:54:39;16.48;;;11.57;;
48554;SDS011;34336;48.270;16.716;2023-09-12T07:57:06;18.85;;;11.57;;
48554;SDS011;34336;48.270;16.716;2023-09-12T07:59:33;19.20;;;11.88;;
48554;SDS011;34336;48.270;16.716;2023-09-12T08:02:01;18.88;;;11.75;;
48554;SDS011;34336;48.270;16.716;2023-09-12T08:04:28;12.95;;;11.00;;
48554;SDS011;34336;48.270;16.716;2023-09-12T08:06:56;15.88;;;11.30;;
48554;SDS011;34336;48.270;16.716;2023-09-12T08:09:46;21.23;;;11.52;;
48554;SDS011;34336;48.270;16.716;2023-09-12T08:12:18;13.05;;;10.43;;
48554;SDS011;34336;48.270;16.716;2023-09-12T08:14:47;16.17;;;11.05;;
48554;SDS011;34336;48.270;16.716;2023-09-12T08:17:14;12.27;;;11.07;;
48554;SDS011;34336;48.270;16.716;2023-09-12T08:19:42;15.50;;;11.40;;
48554;SDS011;34336;48.270;16.716;2023-09-12T08:22:09;15.02;;;12.00;;
48554;SDS011;34336;48.270;16.716;2023-09-12T08:24:37;17.55;;;12.13;;
48554;SDS011;34336;48.270;16.716;2023-09-12T08:27:06;15.65;;;11.50;;
48554;SDS011;34336;48.270;16.716;2023-09-12T08:29:33;15.15;;;11.60;;
48554;SDS011;34336;48.270;16.716;2023-09-12T08:32:01;14.93;;;10.75;;
48554;SDS011;34336;48.270;16.716;2023-09-12T08:34:28;17.77;;;10.98;;
48554;SDS011;34336;48.270;16.716;2023-09-12T08:36:55;14.07;;;10.30;;
48554;SDS011;34336;48.270;16.716;2023-09-12T08:39:26;14.75;;;10.68;;
48554;SDS011;34336;48.270;16.716;2023-09-12T08:41:54;15.38;;;11.35;;
48554;SDS011;34336;48.270;16.716;2023-09-12T08:44:21;12.27;;;9.88;;
48554;SDS011;34336;48.270;16.716;2023-09-12T08:46:48;11.25;;;10.07;;
48554;SDS011;34336;48.270;16.716;2023-09-12T08:49:16;12.25;;;10.40;;
48554;SDS011;34336;48.270;16.716;2023-09-12T08:51:43;16.17;;;10.98;;
48554;SDS011;34336;48.270;16.716;2023-09-12T08:54:11;14.00;;;10.98;;
48554;SDS011;34336;48.270;16.716;2023-09-12T08:56:39;14.43;;;11.00;;
48554;SDS011;34336;48.270;16.716;2023-09-12T08:59:10;15.02;;;10.82;;
48554;SDS011;34336;48.270;16.716;2023-09-12T09:01:38;12.98;;;10.23;;
48554;SDS011;34336;48.270;16.716;2023-09-12T09:04:06;13.23;;;10.07;;
48554;SDS011;34336;48.270;16.716;2023-09-12T09:06:33;13.85;;;10.73;;
48554;SDS011;34336;48.270;16.716;2023-09-12T09:09:07;15.50;;;10.57;;
48554;SDS011;34336;48.270;16.716;2023-09-12T09:11:35;13.77;;;10.55;;
48554;SDS011;34336;48.270;16.716;2023-09-12T09:14:02;12.23;;;10.95;;
48554;SDS011;34336;48.270;16.716;2023-09-12T09:16:30;12.73;;;11.40;;
48554;SDS011;34336;48.270;16.716;2023-09-12T09:19:01;11.45;;;10.23;;
48554;SDS011;34336;48.270;16.716;2023-09-12T09:21:32;16.13;;;11.07;;
48554;SDS011;34336;48.270;16.716;2023-09-12T09:24:01;13.20;;;10.88;;
48554;SDS011;34336;48.270;16.716;2023-09-12T09:26:45;14.05;;;11.10;;
48554;SDS011;34336;48.270;16.716;2023-09-12T09:29:17;14.20;;;10.93;;
48554;SDS011;34336;48.270;16.716;2023-09-12T09:31:47;14.80;;;10.80;;
48554;SDS011;34336;48.270;16.716;2023-09-12T09:34:15;11.68;;;10.40;;
48554;SDS011;34336;48.270;16.716;2023-09-12T09:36:51;14.52;;;10.90;;
48554;SDS011;34336;48.270;16.716;2023-09-12T09:39:20;11.88;;;10.68;;
48554;SDS011;34336;48.270;16.716;2023-09-12T09:41:49;12.43;;;11.15;;
48554;SDS011;34336;48.270;16.716;2023-09-12T09:44:18;14.80;;;11.40;;
48554;SDS011;34336;48.270;16.716;2023-09-12T09:46:46;13.00;;;11.20;;
48554;SDS011;34336;48.270;16.716;2023-09-12T09:49:18;13.02;;;11.60;;
48554;SDS011;34336;48.270;16.716;2023-09-12T09:51:46;15.65;;;11.77;;
48554;SDS011;34336;48.270;16.716;2023-09-12T09:54:14;13.90;;;11.57;;
48554;SDS011;34336;48.270;16.716;2023-09-12T09:59:17;11.77;;;10.52;;
48554;SDS011;34336;48.270;16.716;2023-09-12T10:01:48;12.50;;;11.20;;
48554;SDS011;34336;48.270;16.716;2023-09-12T10:04:16;14.52;;;11.10;;
48554;SDS011;34336;48.270;16.716;2023-09-12T10:06:45;11.43;;;9.48;;
48554;SDS011;34336;48.270;16.716;2023-09-12T10:09:13;14.38;;;10.02;;
48554;SDS011;34336;48.270;16.716;2023-09-12T10:11:43;12.48;;;10.60;;
48554;SDS011;34336;48.270;16.716;2023-09-12T10:14:13;12.50;;;10.02;;
48554;SDS011;34336;48.270;16.716;2023-09-12T10:16:46;15.10;;;9.65;;
48554;SDS011;34336;48.270;16.716;2023-09-12T10:22:47;10.50;;;9.35;;
48554;SDS011;34336;48.270;16.716;2023-09-12T10:24:54;10.93;;;9.60;;
48554;SDS011;34336;48.270;16.716;2023-09-12T10:27:24;10.57;;;9.32;;
48554;SDS011;34336;48.270;16.716;2023-09-12T10:29:52;12.73;;;9.32;;
48554;SDS011;34336;48.270;16.716;2023-09-12T10:32:20;13.65;;;9.93;;
48554;SDS011;34336;48.270;16.716;2023-09-12T10:34:49;12.48;;;9.38;;
48554;SDS011;34336;48.270;16.716;2023-09-12T10:37:19;10.90;;;9.25;;
48554;SDS011;34336;48.270;16.716;2023-09-12T10:39:49;11.82;;;10.15;;
48554;SDS011;34336;48.270;16.716;2023-09-12T10:42:20;14.18;;;9.52;;
48554;SDS011;34336;48.270;16.716;2023-09-12T10:44:47;10.98;;;9.43;;
48554;SDS011;34336;48.270;16.716;2023-09-12T10:47:16;11.30;;;9.75;;
48554;SDS011;34336;48.270;16.716;2023-09-12T10:49:44;11.55;;;9.32;;
48554;SDS011;34336;48.270;16.716;2023-09-12T10:52:23;10.32;;;9.20;;
48554;SDS011;34336;48.270;16.716;2023-09-12T10:54:51;12.07;;;9.63;;
48554;SDS011;34336;48.270;16.716;2023-09-12T10:57:19;11.90;;;9.70;;
48554;SDS011;34336;48.270;16.716;2023-09-12T11:02:32;12.32;;;9.57;;
48554;SDS011;34336;48.270;16.716;2023-09-12T11:05:50;12.05;;;9.30;;
48554;SDS011;34336;48.270;16.716;2023-09-12T11:07:56;13.27;;;9.20;;
48554;SDS011;34336;48.270;16.716;2023-09-12T11:10:25;12.38;;;9.38;;
48554;SDS011;34336;48.270;16.716;2023-09-12T11:12:53;13.60;;;9.70;;
48554;SDS011;34336;48.270;16.716;2023-09-12T11:15:24;12.45;;;9.00;;
48554;SDS011;34336;48.270;16.716;2023-09-12T11:18:03;13.10;;;9.43;;
48554;SDS011;34336;48.270;16.716;2023-09-12T11:23:16;10.75;;;9.48;;
48554;SDS011;34336;48.270;16.716;2023-09-12T11:25:43;12.43;;;9.85;;
48554;SDS011;34336;48.270;16.716;2023-09-12T11:28:10;13.23;;;10.27;;
48554;SDS011;34336;48.270;16.716;2023-09-12T11:30:37;10.80;;;9.63;;
48554;SDS011;34336;48.270;16.716;2023-09-12T11:33:23;14.93;;;9.85;;
48554;SDS011;34336;48.270;16.716;2023-09-12T11:35:55;12.38;;;9.43;;
48554;SDS011;34336;48.270;16.716;2023-09-12T11:38:28;11.93;;;9.18;;
48554;SDS011;34336;48.270;16.716;2023-09-12T11:40:57;11.90;;;9.63;;
48554;SDS011;34336;48.270;16.716;2023-09-12T11:43:25;13.63;;;10.00;;
48554;SDS011;34336;48.270;16.716;2023-09-12T11:45:54;11.90;;;9.82;;
48554;SDS011;34336;48.270;16.716;2023-09-12T11:48:23;11.98;;;9.57;;
48554;SDS011;34336;48.270;16.716;2023-09-12T11:53:23;11.18;;;9.77;;
48554;SDS011;34336;48.270;16.716;2023-09-12T11:55:56;15.48;;;9.57;;
48554;SDS011;34336;48.270;16.716;2023-09-12T11:58:25;13.68;;;10.00;;
48554;SDS011;34336;48.270;16.716;2023-09-12T12:00:56;13.75;;;9.68;;
48554;SDS011;34336;48.270;16.716;2023-09-12T12:03:25;17.15;;;9.18;;
48554;SDS011;34336;48.270;16.716;2023-09-12T12:05:55;12.63;;;9.60;;
48554;SDS011;34336;48.270;16.716;2023-09-12T12:08:23;12.57;;;9.10;;
48554;SDS011;34336;48.270;16.716;2023-09-12T12:10:53;14.85;;;9.48;;
48554;SDS011;34336;48.270;16.716;2023-09-12T12:13:21;14.30;;;10.20;;
48554;SDS011;34336;48.270;16.716;2023-09-12T12:15:49;12.43;;;9.38;;
48554;SDS011;34336;48.270;16.716;2023-09-12T12:18:17;14.75;;;8.75;;
48554;SDS011;34336;48.270;16.716;2023-09-12T12:20:44;11.18;;;8.75;;
48554;SDS011;34336;48.270;16.716;2023-09-12T12:23:11;14.32;;;9.07;;
48554;SDS011;34336;48.270;16.716;2023-09-12T12:25:38;12.18;;;8.95;;
48554;SDS011;34336;48.270;16.716;2023-09-12T12:28:06;11.20;;;8.70;;
48554;SDS011;34336;48.270;16.716;2023-09-12T12:30:34;11.07;;;8.73;;
48554;SDS011;34336;48.270;16.716;2023-09-12T12:33:06;9.82;;;8.23;;
48554;SDS011;34336;48.270;16.716;2023-09-12T12:36:02;11.27;;;8.52;;
48554;SDS011;34336;48.270;16.716;2023-09-12T12:38:33;10.23;;;8.48;;
48554;SDS011;34336;48.270;16.716;2023-09-12T12:41:03;13.57;;;9.13;;
48554;SDS011;34336;48.270;16.716;2023-09-12T12:43:30;11.40;;;8.82;;
48554;SDS011;34336;48.270;16.716;2023-09-12T12:45:58;13.95;;;9.02;;
48554;SDS011;34336;48.270;16.716;2023-09-12T12:48:28;11.52;;;8.90;;
48554;SDS011;34336;48.270;16.716;2023-09-12T12:50:58;9.82;;;7.68;;
48554;SDS011;34336;48.270;16.716;2023-09-12T12:53:41;10.15;;;7.80;;
48554;SDS011;34336;48.270;16.716;2023-09-12T12:56:13;9.95;;;7.72;;
48554;SDS011;34336;48.270;16.716;2023-09-12T12:58:48;12.65;;;8.27;;
48554;SDS011;34336;48.270;16.716;2023-09-12T13:01:16;9.23;;;7.60;;
48554;SDS011;34336;48.270;16.716;2023-09-12T13:03:44;9.23;;;7.85;;
48554;SDS011;34336;48.270;16.716;2023-09-12T13:06:12;8.93;;;7.72;;
48554;SDS011;34336;48.270;16.716;2023-09-12T13:08:41;12.07;;;8.07;;
48554;SDS011;34336;48.270;16.716;2023-09-12T13:11:09;11.75;;;8.02;;
48554;SDS011;34336;48.270;16.716;2023-09-12T13:13:37;9.40;;;8.35;;
48554;SDS011;34336;48.270;16.716;2023-09-12T13:16:04;9.75;;;8.38;;
48554;SDS011;34336;48.270;16.716;2023-09-12T13:18:32;10.57;;;8.50;;
48554;SDS011;34336;48.270;16.716;2023-09-12T13:21:00;9.77;;;7.50;;
48554;SDS011;34336;48.270;16.716;2023-09-12T13:23:27;11.85;;;7.65;;
48554;SDS011;34336;48.270;16.716;2023-09-12T13:25:54;9.48;;;7.53;;
48554;SDS011;34336;48.270;16.716;2023-09-12T13:28:22;8.63;;;7.38;;
48554;SDS011;34336;48.270;16.716;2023-09-12T13:30:53;12.02;;;8.10;;
48554;SDS011;34336;48.270;16.716;2023-09-12T13:33:20;11.13;;;7.85;;
48554;SDS011;34336;48.270;16.716;2023-09-12T13:35:50;9.30;;;7.30;;
48554;SDS011;34336;48.270;16.716;2023-09-12T13:38:18;10.80;;;7.50;;
48554;SDS011;34336;48.270;16.716;2023-09-12T13:40:46;12.27;;;7.13;;
48554;SDS011;34336;48.270;16.716;2023-09-12T13:43:13;8.57;;;7.72;;
48554;SDS011;34336;48.270;16.716;2023-09-12T13:45:41;9.20;;;7.70;;
48554;SDS011;34336;48.270;16.716;2023-09-12T13:48:08;9.70;;;8.45;;
48554;SDS011;34336;48.270;16.716;2023-09-12T13:50:35;8.80;;;7.90;;
48554;SDS011;34336;48.270;16.716;2023-09-12T13:53:03;9.13;;;7.22;;
48554;SDS011;34336;48.270;16.716;2023-09-12T13:55:31;9.38;;;8.18;;
48554;SDS011;34336;48.270;16.716;2023-09-12T13:58:02;9.27;;;7.40;;
48554;SDS011;34336;48.270;16.716;2023-09-12T14:00:30;9.13;;;7.38;;
48554;SDS011;34336;48.270;16.716;2023-09-12T14:03:02;8.27;;;6.95;;
48554;SDS011;34336;48.270;16.716;2023-09-12T14:05:30;8.00;;;7.20;;
48554;SDS011;34336;48.270;16.716;2023-09-12T14:07:58;12.15;;;8.85;;
48554;SDS011;34336;48.270;16.716;2023-09-12T14:10:25;9.55;;;7.78;;
48554;SDS011;34336;48.270;16.716;2023-09-12T14:13:02;10.10;;;7.90;;
48554;SDS011;34336;48.270;16.716;2023-09-12T14:15:45;8.57;;;7.07;;
48554;SDS011;34336;48.270;16.716;2023-09-12T14:18:13;9.43;;;6.85;;
48554;SDS011;34336;48.270;16.716;2023-09-12T14:20:40;11.70;;;7.50;;
48554;SDS011;34336;48.270;16.716;2023-09-12T14:23:08;8.73;;;7.68;;
48554;SDS011;34336;48.270;16.716;2023-09-12T14:25:35;9.13;;;7.72;;
48554;SDS011;34336;48.270;16.716;2023-09-12T14:28:04;9.32;;;7.65;;
48554;SDS011;34336;48.270;16.716;2023-09-12T14:30:31;8.45;;;7.38;;
48554;SDS011;34336;48.270;16.716;2023-09-12T14:33:03;12.00;;;7.97;;
48554;SDS011;34336;48.270;16.716;2023-09-12T14:35:30;9.57;;;7.28;;
48554;SDS011;34336;48.270;16.716;2023-09-12T14:37:57;11.18;;;8.60;;
48554;SDS011;34336;48.270;16.716;2023-09-12T14:40:25;10.63;;;8.05;;